sensor_id;sensor_type;location;lat;lon;timestamp;temperature;humidity
774;DHT22;370;48.810;9.150;2023-08-06T00:01:06;16.10;76.90
774;DHT22;370;48.810;9.150;2023-08-06T00:03:33;16.00;76.10
774;DHT22;370;48.810;9.150;2023-08-06T00:06:00;16.00;76.10
774;DHT22;370;48.810;9.150;2023-08-06T00:08:26;16.00;75.50
774;DHT22;370;48.810;9.150;2023-08-06T00:10:53;16.00;74.70
774;DHT22;370;48.810;9.150;2023-08-06T00:13:21;15.90;73.30
774;DHT22;370;48.810;9.150;2023-08-06T00:15:48;15.90;71.50
774;DHT22;370;48.810;9.150;2023-08-06T00:18:15;15.80;68.60
774;DHT22;370;48.810;9.150;2023-08-06T00:20:41;15.60;67.20
774;DHT22;370;48.810;9.150;2023-08-06T00:23:08;15.50;67.70
774;DHT22;370;48.810;9.150;2023-08-06T00:25:35;15.40;68.10
774;DHT22;370;48.810;9.150;2023-08-06T00:28:02;15.30;69.00
774;DHT22;370;48.810;9.150;2023-08-06T00:30:30;15.20;68.40
774;DHT22;370;48.810;9.150;2023-08-06T00:32:57;15.10;68.30
774;DHT22;370;48.810;9.150;2023-08-06T00:35:24;15.00;68.60
774;DHT22;370;48.810;9.150;2023-08-06T00:37:51;14.90;68.20
774;DHT22;370;48.810;9.150;2023-08-06T00:40:20;14.80;68.40
774;DHT22;370;48.810;9.150;2023-08-06T00:42:47;14.70;68.50
774;DHT22;370;48.810;9.150;2023-08-06T00:45:14;14.60;68.30
774;DHT22;370;48.810;9.150;2023-08-06T00:47:43;14.60;67.60
774;DHT22;370;48.810;9.150;2023-08-06T00:50:09;14.50;68.00
774;DHT22;370;48.810;9.150;2023-08-06T00:52:37;14.40;68.80
774;DHT22;370;48.810;9.150;2023-08-06T00:55:04;14.40;69.10
774;DHT22;370;48.810;9.150;2023-08-06T00:57:31;14.40;68.90
774;DHT22;370;48.810;9.150;2023-08-06T00:59:58;14.30;69.10
774;DHT22;370;48.810;9.150;2023-08-06T01:02:25;14.30;69.90
774;DHT22;370;48.810;9.150;2023-08-06T01:04:53;14.20;70.40
774;DHT22;370;48.810;9.150;2023-08-06T01:07:29;14.20;70.20
774;DHT22;370;48.810;9.150;2023-08-06T01:10:10;14.20;70.00
774;DHT22;370;48.810;9.150;2023-08-06T01:12:45;14.10;69.50
774;DHT22;370;48.810;9.150;2023-08-06T01:15:19;14.10;69.30
774;DHT22;370;48.810;9.150;2023-08-06T01:17:47;14.10;70.10
774;DHT22;370;48.810;9.150;2023-08-06T01:20:16;14.10;70.90
774;DHT22;370;48.810;9.150;2023-08-06T01:22:44;14.10;73.10
774;DHT22;370;48.810;9.150;2023-08-06T01:25:15;14.20;74.30
774;DHT22;370;48.810;9.150;2023-08-06T01:27:46;14.20;75.20
774;DHT22;370;48.810;9.150;2023-08-06T01:30:17;14.30;75.40
774;DHT22;370;48.810;9.150;2023-08-06T01:32:46;14.30;75.80
774;DHT22;370;48.810;9.150;2023-08-06T01:35:16;14.40;76.10
774;DHT22;370;48.810;9.150;2023-08-06T01:37:46;14.50;74.90
774;DHT22;370;48.810;9.150;2023-08-06T01:40:13;14.50;74.60
774;DHT22;370;48.810;9.150;2023-08-06T01:42:40;14.50;74.30
774;DHT22;370;48.810;9.150;2023-08-06T01:45:08;14.50;70.60
774;DHT22;370;48.810;9.150;2023-08-06T01:47:35;14.40;70.00
774;DHT22;370;48.810;9.150;2023-08-06T01:50:02;14.40;69.90
774;DHT22;370;48.810;9.150;2023-08-06T01:52:29;14.40;68.50
774;DHT22;370;48.810;9.150;2023-08-06T01:54:57;14.40;66.70
774;DHT22;370;48.810;9.150;2023-08-06T01:57:24;14.40;65.30
774;DHT22;370;48.810;9.150;2023-08-06T01:59:51;14.40;66.00
774;DHT22;370;48.810;9.150;2023-08-06T02:02:18;14.40;64.90
774;DHT22;370;48.810;9.150;2023-08-06T02:04:45;14.30;63.40
774;DHT22;370;48.810;9.150;2023-08-06T02:07:11;14.30;62.90
774;DHT22;370;48.810;9.150;2023-08-06T02:09:38;14.20;61.70
774;DHT22;370;48.810;9.150;2023-08-06T02:12:07;14.00;61.40
774;DHT22;370;48.810;9.150;2023-08-06T02:14:34;14.00;63.00
774;DHT22;370;48.810;9.150;2023-08-06T02:17:01;13.90;62.30
774;DHT22;370;48.810;9.150;2023-08-06T02:19:28;13.80;62.90
774;DHT22;370;48.810;9.150;2023-08-06T02:21:54;13.80;63.80
774;DHT22;370;48.810;9.150;2023-08-06T02:24:21;13.80;63.80
774;DHT22;370;48.810;9.150;2023-08-06T02:26:48;13.70;62.60
774;DHT22;370;48.810;9.150;2023-08-06T02:29:18;13.80;62.80
774;DHT22;370;48.810;9.150;2023-08-06T02:31:44;13.70;62.00
774;DHT22;370;48.810;9.150;2023-08-06T02:34:11;13.60;62.60
774;DHT22;370;48.810;9.150;2023-08-06T02:36:38;13.60;63.60
774;DHT22;370;48.810;9.150;2023-08-06T02:39:05;13.60;63.60
774;DHT22;370;48.810;9.150;2023-08-06T02:41:31;13.50;63.60
774;DHT22;370;48.810;9.150;2023-08-06T02:43:58;13.50;63.60
774;DHT22;370;48.810;9.150;2023-08-06T02:46:26;13.50;63.60
774;DHT22;370;48.810;9.150;2023-08-06T02:48:53;13.50;63.50
774;DHT22;370;48.810;9.150;2023-08-06T02:51:19;13.50;63.90
774;DHT22;370;48.810;9.150;2023-08-06T02:53:48;13.50;63.50
774;DHT22;370;48.810;9.150;2023-08-06T02:56:14;13.50;64.20
774;DHT22;370;48.810;9.150;2023-08-06T02:58:41;13.40;64.20
774;DHT22;370;48.810;9.150;2023-08-06T03:01:08;13.40;66.10
774;DHT22;370;48.810;9.150;2023-08-06T03:03:36;13.40;67.50
774;DHT22;370;48.810;9.150;2023-08-06T03:06:03;13.40;67.40
774;DHT22;370;48.810;9.150;2023-08-06T03:08:29;13.50;67.10
774;DHT22;370;48.810;9.150;2023-08-06T03:10:56;13.50;66.80
774;DHT22;370;48.810;9.150;2023-08-06T03:13:23;13.50;67.40
774;DHT22;370;48.810;9.150;2023-08-06T03:15:53;13.60;68.00
774;DHT22;370;48.810;9.150;2023-08-06T03:18:20;13.60;68.30
774;DHT22;370;48.810;9.150;2023-08-06T03:20:49;13.60;67.70
774;DHT22;370;48.810;9.150;2023-08-06T03:23:15;13.60;68.40
774;DHT22;370;48.810;9.150;2023-08-06T03:25:42;13.60;69.00
774;DHT22;370;48.810;9.150;2023-08-06T03:28:09;13.70;72.00
774;DHT22;370;48.810;9.150;2023-08-06T03:30:36;13.80;69.90
774;DHT22;370;48.810;9.150;2023-08-06T03:33:03;13.90;66.80
774;DHT22;370;48.810;9.150;2023-08-06T03:35:29;14.00;65.70
774;DHT22;370;48.810;9.150;2023-08-06T03:37:57;14.10;65.20
774;DHT22;370;48.810;9.150;2023-08-06T03:40:24;14.00;64.00
774;DHT22;370;48.810;9.150;2023-08-06T03:42:51;14.10;66.70
774;DHT22;370;48.810;9.150;2023-08-06T03:45:18;14.10;66.10
774;DHT22;370;48.810;9.150;2023-08-06T03:47:44;14.00;66.70
774;DHT22;370;48.810;9.150;2023-08-06T03:50:11;14.00;66.20
774;DHT22;370;48.810;9.150;2023-08-06T03:52:38;14.00;66.60
774;DHT22;370;48.810;9.150;2023-08-06T03:55:06;14.10;68.20
774;DHT22;370;48.810;9.150;2023-08-06T03:57:33;14.10;68.20
774;DHT22;370;48.810;9.150;2023-08-06T04:00:00;14.10;67.80
774;DHT22;370;48.810;9.150;2023-08-06T04:02:26;14.10;68.50
774;DHT22;370;48.810;9.150;2023-08-06T04:04:53;14.10;69.80
774;DHT22;370;48.810;9.150;2023-08-06T04:07:20;14.10;71.40
774;DHT22;370;48.810;9.150;2023-08-06T04:09:54;14.10;71.20
774;DHT22;370;48.810;9.150;2023-08-06T04:12:22;14.10;74.20
774;DHT22;370;48.810;9.150;2023-08-06T04:14:50;14.20;75.20
774;DHT22;370;48.810;9.150;2023-08-06T04:17:17;14.30;76.90
774;DHT22;370;48.810;9.150;2023-08-06T04:19:46;14.40;77.50
774;DHT22;370;48.810;9.150;2023-08-06T04:22:13;14.50;77.40
774;DHT22;370;48.810;9.150;2023-08-06T04:24:40;14.50;77.00
774;DHT22;370;48.810;9.150;2023-08-06T04:27:08;14.40;73.50
774;DHT22;370;48.810;9.150;2023-08-06T04:29:36;14.40;74.50
774;DHT22;370;48.810;9.150;2023-08-06T04:32:05;14.50;74.60
774;DHT22;370;48.810;9.150;2023-08-06T04:34:32;14.50;74.00
774;DHT22;370;48.810;9.150;2023-08-06T04:36:59;14.50;74.50
774;DHT22;370;48.810;9.150;2023-08-06T04:39:26;14.50;73.30
774;DHT22;370;48.810;9.150;2023-08-06T04:41:53;14.60;74.20
774;DHT22;370;48.810;9.150;2023-08-06T04:44:20;14.60;73.60
774;DHT22;370;48.810;9.150;2023-08-06T04:46:49;14.50;71.60
774;DHT22;370;48.810;9.150;2023-08-06T04:49:16;14.50;73.10
774;DHT22;370;48.810;9.150;2023-08-06T04:51:42;14.60;74.00
774;DHT22;370;48.810;9.150;2023-08-06T04:54:09;14.60;74.10
774;DHT22;370;48.810;9.150;2023-08-06T04:56:36;14.60;73.50
774;DHT22;370;48.810;9.150;2023-08-06T04:59:03;14.60;72.00
774;DHT22;370;48.810;9.150;2023-08-06T05:01:30;14.60;69.70
774;DHT22;370;48.810;9.150;2023-08-06T05:03:58;14.50;69.20
774;DHT22;370;48.810;9.150;2023-08-06T05:06:24;14.50;68.60
774;DHT22;370;48.810;9.150;2023-08-06T05:08:51;14.40;66.00
774;DHT22;370;48.810;9.150;2023-08-06T05:11:18;14.40;66.60
774;DHT22;370;48.810;9.150;2023-08-06T05:13:45;14.40;67.40
774;DHT22;370;48.810;9.150;2023-08-06T05:16:11;14.50;67.10
774;DHT22;370;48.810;9.150;2023-08-06T05:18:38;14.40;66.80
774;DHT22;370;48.810;9.150;2023-08-06T05:21:06;14.40;66.50
774;DHT22;370;48.810;9.150;2023-08-06T05:23:33;14.40;67.60
774;DHT22;370;48.810;9.150;2023-08-06T05:26:00;14.50;68.30
774;DHT22;370;48.810;9.150;2023-08-06T05:28:26;14.60;70.80
774;DHT22;370;48.810;9.150;2023-08-06T05:30:53;14.80;72.70
774;DHT22;370;48.810;9.150;2023-08-06T05:33:20;15.10;72.80
774;DHT22;370;48.810;9.150;2023-08-06T05:35:47;15.30;68.70
774;DHT22;370;48.810;9.150;2023-08-06T05:38:16;15.40;68.70
774;DHT22;370;48.810;9.150;2023-08-06T05:40:43;15.50;69.30
774;DHT22;370;48.810;9.150;2023-08-06T05:43:10;15.80;69.10
774;DHT22;370;48.810;9.150;2023-08-06T05:45:37;15.90;63.00
774;DHT22;370;48.810;9.150;2023-08-06T05:48:04;16.10;60.10
774;DHT22;370;48.810;9.150;2023-08-06T05:50:31;16.20;55.70
774;DHT22;370;48.810;9.150;2023-08-06T05:52:57;16.10;54.50
774;DHT22;370;48.810;9.150;2023-08-06T05:55:25;16.00;43.90
774;DHT22;370;48.810;9.150;2023-08-06T05:57:52;15.90;44.90
774;DHT22;370;48.810;9.150;2023-08-06T06:00:20;15.80;40.80
774;DHT22;370;48.810;9.150;2023-08-06T06:02:47;15.80;42.90
774;DHT22;370;48.810;9.150;2023-08-06T06:05:14;15.70;45.70
774;DHT22;370;48.810;9.150;2023-08-06T06:07:40;15.70;44.60
774;DHT22;370;48.810;9.150;2023-08-06T06:10:08;15.70;38.90
774;DHT22;370;48.810;9.150;2023-08-06T06:12:38;15.70;41.00
774;DHT22;370;48.810;9.150;2023-08-06T06:15:05;15.70;43.20
774;DHT22;370;48.810;9.150;2023-08-06T06:17:32;15.70;42.00
774;DHT22;370;48.810;9.150;2023-08-06T06:19:59;15.80;41.70
774;DHT22;370;48.810;9.150;2023-08-06T06:22:26;15.90;45.90
774;DHT22;370;48.810;9.150;2023-08-06T06:24:52;15.80;41.10
774;DHT22;370;48.810;9.150;2023-08-06T06:27:19;15.80;37.40
774;DHT22;370;48.810;9.150;2023-08-06T06:29:47;15.70;39.80
774;DHT22;370;48.810;9.150;2023-08-06T06:32:14;15.50;37.00
774;DHT22;370;48.810;9.150;2023-08-06T06:34:41;15.50;39.90
774;DHT22;370;48.810;9.150;2023-08-06T06:37:08;15.50;38.60
774;DHT22;370;48.810;9.150;2023-08-06T06:39:34;15.50;38.10
774;DHT22;370;48.810;9.150;2023-08-06T06:42:01;15.50;39.20
774;DHT22;370;48.810;9.150;2023-08-06T06:44:28;15.70;39.80
774;DHT22;370;48.810;9.150;2023-08-06T06:46:56;15.90;41.10
774;DHT22;370;48.810;9.150;2023-08-06T06:49:23;16.30;36.00
774;DHT22;370;48.810;9.150;2023-08-06T06:51:50;16.50;35.00
774;DHT22;370;48.810;9.150;2023-08-06T06:54:17;16.80;31.60
774;DHT22;370;48.810;9.150;2023-08-06T06:56:44;17.00;28.30
774;DHT22;370;48.810;9.150;2023-08-06T06:59:11;17.00;27.00
774;DHT22;370;48.810;9.150;2023-08-06T07:01:38;17.10;25.40
774;DHT22;370;48.810;9.150;2023-08-06T07:04:06;17.10;25.80
774;DHT22;370;48.810;9.150;2023-08-06T07:06:32;17.10;23.90
774;DHT22;370;48.810;9.150;2023-08-06T07:08:59;17.00;20.90
774;DHT22;370;48.810;9.150;2023-08-06T07:11:26;16.90;21.60
774;DHT22;370;48.810;9.150;2023-08-06T07:13:56;16.80;21.00
774;DHT22;370;48.810;9.150;2023-08-06T07:16:23;16.60;23.90
774;DHT22;370;48.810;9.150;2023-08-06T07:18:51;16.60;24.90
774;DHT22;370;48.810;9.150;2023-08-06T07:21:20;16.70;24.80
774;DHT22;370;48.810;9.150;2023-08-06T07:23:47;16.70;25.70
774;DHT22;370;48.810;9.150;2023-08-06T07:26:22;16.60;22.80
774;DHT22;370;48.810;9.150;2023-08-06T07:28:49;16.40;25.00
774;DHT22;370;48.810;9.150;2023-08-06T07:31:16;16.30;26.50
774;DHT22;370;48.810;9.150;2023-08-06T07:33:43;16.30;27.00
774;DHT22;370;48.810;9.150;2023-08-06T07:36:12;16.30;27.70
774;DHT22;370;48.810;9.150;2023-08-06T07:38:41;16.30;28.50
774;DHT22;370;48.810;9.150;2023-08-06T07:41:08;16.40;28.20
774;DHT22;370;48.810;9.150;2023-08-06T07:43:35;16.70;27.70
774;DHT22;370;48.810;9.150;2023-08-06T07:46:02;16.70;23.70
774;DHT22;370;48.810;9.150;2023-08-06T07:48:29;16.80;25.30
774;DHT22;370;48.810;9.150;2023-08-06T07:50:57;16.90;22.80
774;DHT22;370;48.810;9.150;2023-08-06T07:53:25;16.80;21.60
774;DHT22;370;48.810;9.150;2023-08-06T07:55:56;16.90;21.70
774;DHT22;370;48.810;9.150;2023-08-06T07:58:24;16.90;24.10
774;DHT22;370;48.810;9.150;2023-08-06T08:00:51;17.00;22.50
774;DHT22;370;48.810;9.150;2023-08-06T08:03:17;17.20;22.40
774;DHT22;370;48.810;9.150;2023-08-06T08:05:45;17.50;19.70
774;DHT22;370;48.810;9.150;2023-08-06T08:08:12;17.70;19.00
774;DHT22;370;48.810;9.150;2023-08-06T08:10:38;18.00;13.90
774;DHT22;370;48.810;9.150;2023-08-06T08:13:06;18.10;16.30
774;DHT22;370;48.810;9.150;2023-08-06T08:15:34;18.50;11.20
774;DHT22;370;48.810;9.150;2023-08-06T08:18:01;18.90;11.60
774;DHT22;370;48.810;9.150;2023-08-06T08:20:28;19.20;6.80
774;DHT22;370;48.810;9.150;2023-08-06T08:22:58;19.90;6.60
774;DHT22;370;48.810;9.150;2023-08-06T08:25:25;21.20;1.00
774;DHT22;370;48.810;9.150;2023-08-06T08:27:53;21.80;1.00
774;DHT22;370;48.810;9.150;2023-08-06T08:30:21;22.80;1.00
774;DHT22;370;48.810;9.150;2023-08-06T08:32:48;22.90;1.00
774;DHT22;370;48.810;9.150;2023-08-06T08:35:14;22.90;1.00
774;DHT22;370;48.810;9.150;2023-08-06T08:37:41;22.80;1.00
774;DHT22;370;48.810;9.150;2023-08-06T08:40:09;22.50;1.00
774;DHT22;370;48.810;9.150;2023-08-06T08:42:36;22.50;1.00
774;DHT22;370;48.810;9.150;2023-08-06T08:45:04;22.20;1.00
774;DHT22;370;48.810;9.150;2023-08-06T08:47:35;22.00;1.00
774;DHT22;370;48.810;9.150;2023-08-06T08:50:04;22.10;1.00
774;DHT22;370;48.810;9.150;2023-08-06T08:52:32;22.30;1.00
774;DHT22;370;48.810;9.150;2023-08-06T08:55:01;22.00;1.00
774;DHT22;370;48.810;9.150;2023-08-06T08:57:28;21.60;1.00
774;DHT22;370;48.810;9.150;2023-08-06T08:59:55;20.40;1.00
774;DHT22;370;48.810;9.150;2023-08-06T09:02:28;20.30;1.00
774;DHT22;370;48.810;9.150;2023-08-06T09:04:57;19.90;1.00
774;DHT22;370;48.810;9.150;2023-08-06T09:07:25;19.30;7.40
774;DHT22;370;48.810;9.150;2023-08-06T09:09:53;18.80;9.30
774;DHT22;370;48.810;9.150;2023-08-06T09:12:21;18.30;10.70
774;DHT22;370;48.810;9.150;2023-08-06T09:14:48;18.20;14.20
774;DHT22;370;48.810;9.150;2023-08-06T09:17:14;18.20;9.20
774;DHT22;370;48.810;9.150;2023-08-06T09:19:45;18.10;10.50
774;DHT22;370;48.810;9.150;2023-08-06T09:22:15;18.20;9.20
774;DHT22;370;48.810;9.150;2023-08-06T09:24:42;18.60;10.90
774;DHT22;370;48.810;9.150;2023-08-06T09:27:11;18.70;7.20
774;DHT22;370;48.810;9.150;2023-08-06T09:29:40;18.80;8.50
774;DHT22;370;48.810;9.150;2023-08-06T09:32:08;19.10;6.50
774;DHT22;370;48.810;9.150;2023-08-06T09:34:35;19.30;6.00
774;DHT22;370;48.810;9.150;2023-08-06T09:37:03;19.40;2.30
774;DHT22;370;48.810;9.150;2023-08-06T09:39:31;19.30;4.00
774;DHT22;370;48.810;9.150;2023-08-06T09:41:59;19.10;6.50
774;DHT22;370;48.810;9.150;2023-08-06T09:44:30;18.90;6.50
774;DHT22;370;48.810;9.150;2023-08-06T09:46:58;18.70;8.20
774;DHT22;370;48.810;9.150;2023-08-06T09:49:26;18.80;8.70
774;DHT22;370;48.810;9.150;2023-08-06T09:51:54;18.90;7.40
774;DHT22;370;48.810;9.150;2023-08-06T09:54:23;19.00;6.30
774;DHT22;370;48.810;9.150;2023-08-06T09:56:53;19.00;5.00
774;DHT22;370;48.810;9.150;2023-08-06T09:59:20;19.10;6.00
774;DHT22;370;48.810;9.150;2023-08-06T10:01:48;19.20;4.80
774;DHT22;370;48.810;9.150;2023-08-06T10:04:15;19.20;4.20
774;DHT22;370;48.810;9.150;2023-08-06T10:06:46;18.90;6.00
774;DHT22;370;48.810;9.150;2023-08-06T10:09:13;18.70;7.80
774;DHT22;370;48.810;9.150;2023-08-06T10:11:42;18.40;10.70
774;DHT22;370;48.810;9.150;2023-08-06T10:14:12;18.30;10.20
774;DHT22;370;48.810;9.150;2023-08-06T10:16:40;18.60;7.60
774;DHT22;370;48.810;9.150;2023-08-06T10:19:09;18.90;6.00
774;DHT22;370;48.810;9.150;2023-08-06T10:21:38;19.20;3.40
774;DHT22;370;48.810;9.150;2023-08-06T10:24:07;19.20;2.20
774;DHT22;370;48.810;9.150;2023-08-06T10:26:36;19.00;7.80
774;DHT22;370;48.810;9.150;2023-08-06T10:29:37;18.60;10.90
774;DHT22;370;48.810;9.150;2023-08-06T10:32:04;18.60;10.90
774;DHT22;370;48.810;9.150;2023-08-06T10:34:55;18.80;6.50
774;DHT22;370;48.810;9.150;2023-08-06T10:37:23;18.90;11.10
774;DHT22;370;48.810;9.150;2023-08-06T10:39:50;19.40;5.70
774;DHT22;370;48.810;9.150;2023-08-06T10:42:21;20.00;1.00
774;DHT22;370;48.810;9.150;2023-08-06T10:45:17;20.80;1.00
774;DHT22;370;48.810;9.150;2023-08-06T10:47:45;21.60;1.00
774;DHT22;370;48.810;9.150;2023-08-06T10:50:14;21.70;1.00
774;DHT22;370;48.810;9.150;2023-08-06T10:52:42;21.50;1.00
774;DHT22;370;48.810;9.150;2023-08-06T10:55:09;21.40;1.00
774;DHT22;370;48.810;9.150;2023-08-06T10:57:36;21.30;1.00
774;DHT22;370;48.810;9.150;2023-08-06T11:00:04;21.00;1.00
774;DHT22;370;48.810;9.150;2023-08-06T11:02:35;20.50;1.00
774;DHT22;370;48.810;9.150;2023-08-06T11:05:06;20.10;1.00
774;DHT22;370;48.810;9.150;2023-08-06T11:07:33;19.40;1.00
774;DHT22;370;48.810;9.150;2023-08-06T11:10:04;18.90;1.00
774;DHT22;370;48.810;9.150;2023-08-06T11:12:32;18.70;1.40
774;DHT22;370;48.810;9.150;2023-08-06T11:14:58;18.60;1.00
774;DHT22;370;48.810;9.150;2023-08-06T11:17:27;18.50;1.00
774;DHT22;370;48.810;9.150;2023-08-06T11:19:56;18.50;1.70
774;DHT22;370;48.810;9.150;2023-08-06T11:22:25;18.70;1.00
774;DHT22;370;48.810;9.150;2023-08-06T11:24:53;18.80;1.00
774;DHT22;370;48.810;9.150;2023-08-06T11:27:20;18.40;1.00
774;DHT22;370;48.810;9.150;2023-08-06T11:29:47;18.40;1.00
774;DHT22;370;48.810;9.150;2023-08-06T11:32:14;18.60;1.00
774;DHT22;370;48.810;9.150;2023-08-06T11:34:41;18.90;1.00
774;DHT22;370;48.810;9.150;2023-08-06T11:37:09;19.00;1.00
774;DHT22;370;48.810;9.150;2023-08-06T11:39:37;18.60;1.00
774;DHT22;370;48.810;9.150;2023-08-06T11:42:05;18.60;1.00
774;DHT22;370;48.810;9.150;2023-08-06T11:44:35;18.40;1.00
774;DHT22;370;48.810;9.150;2023-08-06T11:47:04;18.30;1.00
774;DHT22;370;48.810;9.150;2023-08-06T11:49:38;18.00;1.00
774;DHT22;370;48.810;9.150;2023-08-06T11:52:12;17.90;1.00
774;DHT22;370;48.810;9.150;2023-08-06T11:54:39;17.70;1.00
774;DHT22;370;48.810;9.150;2023-08-06T11:57:06;17.60;1.10
774;DHT22;370;48.810;9.150;2023-08-06T11:59:33;17.40;4.10
774;DHT22;370;48.810;9.150;2023-08-06T12:02:01;17.30;5.20
774;DHT22;370;48.810;9.150;2023-08-06T12:04:28;17.00;6.10
774;DHT22;370;48.810;9.150;2023-08-06T12:06:55;16.70;7.10
774;DHT22;370;48.810;9.150;2023-08-06T12:09:23;16.40;9.40
774;DHT22;370;48.810;9.150;2023-08-06T12:11:49;16.20;10.90
774;DHT22;370;48.810;9.150;2023-08-06T12:14:16;16.20;15.20
774;DHT22;370;48.810;9.150;2023-08-06T12:16:43;16.00;14.50
774;DHT22;370;48.810;9.150;2023-08-06T12:19:10;15.90;15.70
774;DHT22;370;48.810;9.150;2023-08-06T12:21:36;16.00;13.40
774;DHT22;370;48.810;9.150;2023-08-06T12:24:04;16.20;13.30
774;DHT22;370;48.810;9.150;2023-08-06T12:26:33;16.40;12.30
774;DHT22;370;48.810;9.150;2023-08-06T12:29:00;16.70;10.10
774;DHT22;370;48.810;9.150;2023-08-06T12:31:26;16.90;5.60
774;DHT22;370;48.810;9.150;2023-08-06T12:33:53;17.20;6.40
774;DHT22;370;48.810;9.150;2023-08-06T12:36:20;17.80;2.90
774;DHT22;370;48.810;9.150;2023-08-06T12:38:46;18.40;1.00
774;DHT22;370;48.810;9.150;2023-08-06T12:41:13;18.90;1.00
774;DHT22;370;48.810;9.150;2023-08-06T12:43:41;19.60;1.00
774;DHT22;370;48.810;9.150;2023-08-06T12:46:08;20.90;1.00
774;DHT22;370;48.810;9.150;2023-08-06T12:48:35;22.90;1.00
774;DHT22;370;48.810;9.150;2023-08-06T12:51:02;24.60;1.00
774;DHT22;370;48.810;9.150;2023-08-06T12:53:29;24.60;1.00
774;DHT22;370;48.810;9.150;2023-08-06T12:55:56;26.00;1.00
774;DHT22;370;48.810;9.150;2023-08-06T12:58:22;26.90;1.00
774;DHT22;370;48.810;9.150;2023-08-06T13:00:50;26.20;1.00
774;DHT22;370;48.810;9.150;2023-08-06T13:03:17;24.40;1.00
774;DHT22;370;48.810;9.150;2023-08-06T13:05:44;23.50;1.00
774;DHT22;370;48.810;9.150;2023-08-06T13:08:11;23.30;1.00
774;DHT22;370;48.810;9.150;2023-08-06T13:10:37;23.20;1.00
774;DHT22;370;48.810;9.150;2023-08-06T13:13:04;22.80;1.00
774;DHT22;370;48.810;9.150;2023-08-06T13:15:31;22.40;1.00
774;DHT22;370;48.810;9.150;2023-08-06T13:18:00;22.30;1.00
774;DHT22;370;48.810;9.150;2023-08-06T13:20:30;22.30;1.00
774;DHT22;370;48.810;9.150;2023-08-06T13:22:58;22.10;1.00
774;DHT22;370;48.810;9.150;2023-08-06T13:25:26;21.70;1.00
774;DHT22;370;48.810;9.150;2023-08-06T13:27:54;21.30;1.00
774;DHT22;370;48.810;9.150;2023-08-06T13:30:21;21.20;1.00
774;DHT22;370;48.810;9.150;2023-08-06T13:32:48;21.60;1.00
774;DHT22;370;48.810;9.150;2023-08-06T13:35:16;22.20;1.00
774;DHT22;370;48.810;9.150;2023-08-06T13:37:43;21.90;1.00
774;DHT22;370;48.810;9.150;2023-08-06T13:40:10;21.20;1.00
774;DHT22;370;48.810;9.150;2023-08-06T13:42:37;20.40;1.00
774;DHT22;370;48.810;9.150;2023-08-06T13:45:05;20.10;1.00
774;DHT22;370;48.810;9.150;2023-08-06T13:47:32;19.90;1.00
774;DHT22;370;48.810;9.150;2023-08-06T13:49:59;19.70;1.00
774;DHT22;370;48.810;9.150;2023-08-06T13:52:27;19.60;1.00
774;DHT22;370;48.810;9.150;2023-08-06T13:54:54;19.40;1.00
774;DHT22;370;48.810;9.150;2023-08-06T13:57:21;19.50;1.00
774;DHT22;370;48.810;9.150;2023-08-06T13:59:47;19.50;1.00
774;DHT22;370;48.810;9.150;2023-08-06T14:02:14;19.20;1.00
774;DHT22;370;48.810;9.150;2023-08-06T14:04:41;19.20;1.00
774;DHT22;370;48.810;9.150;2023-08-06T14:07:08;19.10;1.00
774;DHT22;370;48.810;9.150;2023-08-06T14:09:36;19.00;1.00
774;DHT22;370;48.810;9.150;2023-08-06T14:12:03;18.60;1.00
774;DHT22;370;48.810;9.150;2023-08-06T14:14:30;18.40;1.00
774;DHT22;370;48.810;9.150;2023-08-06T14:16:57;18.30;1.00
774;DHT22;370;48.810;9.150;2023-08-06T14:19:24;18.40;1.00
774;DHT22;370;48.810;9.150;2023-08-06T14:21:51;18.40;1.00
774;DHT22;370;48.810;9.150;2023-08-06T14:24:17;18.60;1.00
774;DHT22;370;48.810;9.150;2023-08-06T14:26:45;18.90;1.00
774;DHT22;370;48.810;9.150;2023-08-06T14:29:12;19.20;1.00
774;DHT22;370;48.810;9.150;2023-08-06T14:31:39;19.50;1.00
774;DHT22;370;48.810;9.150;2023-08-06T14:34:06;19.70;1.00
774;DHT22;370;48.810;9.150;2023-08-06T14:36:33;20.00;1.00
774;DHT22;370;48.810;9.150;2023-08-06T14:39:00;20.00;1.00
774;DHT22;370;48.810;9.150;2023-08-06T14:41:27;20.00;1.00
774;DHT22;370;48.810;9.150;2023-08-06T14:43:55;19.90;1.00
774;DHT22;370;48.810;9.150;2023-08-06T14:46:21;19.80;1.00
774;DHT22;370;48.810;9.150;2023-08-06T14:48:48;19.40;1.00
774;DHT22;370;48.810;9.150;2023-08-06T14:51:15;19.10;1.00
774;DHT22;370;48.810;9.150;2023-08-06T14:53:44;18.70;1.00
774;DHT22;370;48.810;9.150;2023-08-06T14:56:11;18.40;1.00
774;DHT22;370;48.810;9.150;2023-08-06T14:58:37;18.20;1.00
774;DHT22;370;48.810;9.150;2023-08-06T15:01:05;18.00;1.00
774;DHT22;370;48.810;9.150;2023-08-06T15:03:32;17.80;1.00
774;DHT22;370;48.810;9.150;2023-08-06T15:05:59;17.60;1.00
774;DHT22;370;48.810;9.150;2023-08-06T15:08:26;17.40;1.00
774;DHT22;370;48.810;9.150;2023-08-06T15:10:53;18.50;4.10
774;DHT22;370;48.810;9.150;2023-08-06T15:13:20;20.00;1.00
774;DHT22;370;48.810;9.150;2023-08-06T15:15:47;20.90;1.00
774;DHT22;370;48.810;9.150;2023-08-06T15:18:15;21.30;1.00
774;DHT22;370;48.810;9.150;2023-08-06T15:20:42;20.80;1.00
774;DHT22;370;48.810;9.150;2023-08-06T15:23:09;20.80;1.00
774;DHT22;370;48.810;9.150;2023-08-06T15:25:36;20.70;1.00
774;DHT22;370;48.810;9.150;2023-08-06T15:28:03;20.60;1.00
774;DHT22;370;48.810;9.150;2023-08-06T15:30:30;20.70;1.00
774;DHT22;370;48.810;9.150;2023-08-06T15:32:57;20.60;1.00
774;DHT22;370;48.810;9.150;2023-08-06T15:35:26;20.60;1.00
774;DHT22;370;48.810;9.150;2023-08-06T15:37:53;20.50;1.00
774;DHT22;370;48.810;9.150;2023-08-06T15:40:20;20.60;1.00
774;DHT22;370;48.810;9.150;2023-08-06T15:42:46;20.50;1.00
774;DHT22;370;48.810;9.150;2023-08-06T15:45:13;20.60;1.00
774;DHT22;370;48.810;9.150;2023-08-06T15:47:40;21.30;1.00
774;DHT22;370;48.810;9.150;2023-08-06T15:50:07;22.20;1.00
774;DHT22;370;48.810;9.150;2023-08-06T15:52:36;21.70;1.00
774;DHT22;370;48.810;9.150;2023-08-06T15:55:03;21.10;1.00
774;DHT22;370;48.810;9.150;2023-08-06T15:57:31;20.50;1.00
774;DHT22;370;48.810;9.150;2023-08-06T15:59:57;20.30;1.00
774;DHT22;370;48.810;9.150;2023-08-06T16:02:24;20.30;1.00
774;DHT22;370;48.810;9.150;2023-08-06T16:04:52;20.20;1.00
774;DHT22;370;48.810;9.150;2023-08-06T16:07:20;19.90;1.00
774;DHT22;370;48.810;9.150;2023-08-06T16:09:50;19.70;1.00
774;DHT22;370;48.810;9.150;2023-08-06T16:12:19;19.20;1.00
774;DHT22;370;48.810;9.150;2023-08-06T16:14:46;19.00;1.00
774;DHT22;370;48.810;9.150;2023-08-06T16:17:12;18.60;1.00
774;DHT22;370;48.810;9.150;2023-08-06T16:19:40;18.40;1.00
774;DHT22;370;48.810;9.150;2023-08-06T16:22:06;18.30;1.00
774;DHT22;370;48.810;9.150;2023-08-06T16:24:33;18.30;1.00
774;DHT22;370;48.810;9.150;2023-08-06T16:27:02;18.20;1.00
774;DHT22;370;48.810;9.150;2023-08-06T16:29:28;18.10;1.00
774;DHT22;370;48.810;9.150;2023-08-06T16:31:55;18.00;1.00
774;DHT22;370;48.810;9.150;2023-08-06T16:34:22;17.70;1.00
774;DHT22;370;48.810;9.150;2023-08-06T16:36:50;17.40;1.00
774;DHT22;370;48.810;9.150;2023-08-06T16:39:16;17.20;1.00
774;DHT22;370;48.810;9.150;2023-08-06T16:41:45;17.10;1.00
774;DHT22;370;48.810;9.150;2023-08-06T16:44:13;17.10;1.00